sensor_id;sensor_type;location;lat;lon;timestamp;P1;durP1;ratioP1;P2;durP2;ratioP2
21943;SDS011;11136;48.778;9.126;2023-03-17T00:01:00;4.35;;;3.00;;
21943;SDS011;11136;48.778;9.126;2023-03-17T00:03:27;5.10;;;3.33;;
21943;SDS011;11136;48.778;9.126;2023-03-17T00:05:53;6.68;;;3.10;;
21943;SDS011;11136;48.778;9.126;2023-03-17T00:08:21;5.70;;;3.88;;
21943;SDS011;11136;48.778;9.126;2023-03-17T00:10:49;6.30;;;3.65;;
21943;SDS011;11136;48.778;9.126;2023-03-17T00:13:15;7.97;;;4.70;;
21943;SDS011;11136;48.778;9.126;2023-03-17T00:15:41;10.55;;;5.80;;
21943;SDS011;11136;48.778;9.126;2023-03-17T00:18:12;8.27;;;5.30;;
21943;SDS011;11136;48.778;9.126;2023-03-17T00:20:41;8.10;;;4.70;;
21943;SDS011;11136;48.778;9.126;2023-03-17T00:23:08;9.82;;;4.57;;
21943;SDS011;11136;48.778;9.126;2023-03-17T00:25:44;10.15;;;3.75;;
21943;SDS011;11136;48.778;9.126;2023-03-17T00:28:23;4.78;;;3.58;;
21943;SDS011;11136;48.778;9.126;2023-03-17T00:30:52;4.88;;;3.28;;
21943;SDS011;11136;48.778;9.126;2023-03-17T00:33:22;5.93;;;3.58;;
21943;SDS011;11136;48.778;9.126;2023-03-17T00:35:50;10.07;;;3.80;;
21943;SDS011;11136;48.778;9.126;2023-03-17T00:38:17;4.80;;;3.13;;
21943;SDS011;11136;48.778;9.126;2023-03-17T00:40:44;6.78;;;3.63;;
21943;SDS011;11136;48.778;9.126;2023-03-17T00:43:11;8.35;;;3.50;;
21943;SDS011;11136;48.778;9.126;2023-03-17T00:45:37;6.10;;;3.13;;
21943;SDS011;11136;48.778;9.126;2023-03-17T00:48:09;6.63;;;4.00;;
21943;SDS011;11136;48.778;9.126;2023-03-17T00:50:44;4.85;;;3.10;;
21943;SDS011;11136;48.778;9.126;2023-03-17T00:53:12;5.38;;;3.28;;
21943;SDS011;11136;48.778;9.126;2023-03-17T00:55:40;6.80;;;3.58;;
21943;SDS011;11136;48.778;9.126;2023-03-17T00:58:14;8.38;;;3.53;;
21943;SDS011;11136;48.778;9.126;2023-03-17T01:03:14;5.43;;;3.25;;
21943;SDS011;11136;48.778;9.126;2023-03-17T01:05:40;6.18;;;3.25;;
21943;SDS011;11136;48.778;9.126;2023-03-17T01:08:06;6.97;;;3.88;;
21943;SDS011;11136;48.778;9.126;2023-03-17T01:10:33;8.82;;;3.38;;
21943;SDS011;11136;48.778;9.126;2023-03-17T01:13:00;6.40;;;3.80;;
21943;SDS011;11136;48.778;9.126;2023-03-17T01:15:27;6.32;;;3.40;;
21943;SDS011;11136;48.778;9.126;2023-03-17T01:17:55;6.10;;;3.63;;
21943;SDS011;11136;48.778;9.126;2023-03-17T01:20:26;8.00;;;3.55;;
21943;SDS011;11136;48.778;9.126;2023-03-17T01:22:57;6.95;;;4.07;;
21943;SDS011;11136;48.778;9.126;2023-03-17T01:25:23;5.82;;;3.60;;
21943;SDS011;11136;48.778;9.126;2023-03-17T01:27:49;6.05;;;3.17;;
21943;SDS011;11136;48.778;9.126;2023-03-17T01:30:37;5.40;;;3.13;;
21943;SDS011;11136;48.778;9.126;2023-03-17T01:33:03;5.20;;;3.50;;
21943;SDS011;11136;48.778;9.126;2023-03-17T01:35:31;6.28;;;3.78;;
21943;SDS011;11136;48.778;9.126;2023-03-17T01:37:58;6.90;;;3.55;;
21943;SDS011;11136;48.778;9.126;2023-03-17T01:40:25;5.15;;;3.35;;
21943;SDS011;11136;48.778;9.126;2023-03-17T01:43:12;6.50;;;3.08;;
21943;SDS011;11136;48.778;9.126;2023-03-17T01:48:54;5.60;;;4.10;;
21943;SDS011;11136;48.778;9.126;2023-03-17T01:57:21;5.28;;;3.25;;
21943;SDS011;11136;48.778;9.126;2023-03-17T02:00:05;5.25;;;3.38;;
21943;SDS011;11136;48.778;9.126;2023-03-17T02:02:33;5.88;;;3.80;;
21943;SDS011;11136;48.778;9.126;2023-03-17T02:05:07;5.68;;;3.28;;
21943;SDS011;11136;48.778;9.126;2023-03-17T02:07:35;4.75;;;2.80;;
21943;SDS011;11136;48.778;9.126;2023-03-17T02:10:02;3.15;;;2.75;;
21943;SDS011;11136;48.778;9.126;2023-03-17T02:12:29;5.50;;;3.28;;
21943;SDS011;11136;48.778;9.126;2023-03-17T02:14:55;5.07;;;2.72;;
21943;SDS011;11136;48.778;9.126;2023-03-17T02:17:22;4.95;;;2.70;;
21943;SDS011;11136;48.778;9.126;2023-03-17T02:19:49;6.07;;;3.03;;
21943;SDS011;11136;48.778;9.126;2023-03-17T02:22:16;5.38;;;2.78;;
21943;SDS011;11136;48.778;9.126;2023-03-17T02:27:25;4.30;;;3.15;;
21943;SDS011;11136;48.778;9.126;2023-03-17T02:29:55;4.75;;;2.85;;
21943;SDS011;11136;48.778;9.126;2023-03-17T02:32:22;9.45;;;3.28;;
21943;SDS011;11136;48.778;9.126;2023-03-17T02:34:48;6.15;;;2.90;;
21943;SDS011;11136;48.778;9.126;2023-03-17T02:37:14;3.95;;;2.67;;
21943;SDS011;11136;48.778;9.126;2023-03-17T02:39:41;5.82;;;2.60;;
21943;SDS011;11136;48.778;9.126;2023-03-17T02:42:07;5.63;;;2.95;;
21943;SDS011;11136;48.778;9.126;2023-03-17T02:44:33;4.32;;;2.42;;
21943;SDS011;11136;48.778;9.126;2023-03-17T02:46:59;4.35;;;2.40;;
21943;SDS011;11136;48.778;9.126;2023-03-17T02:49:25;6.57;;;2.67;;
21943;SDS011;11136;48.778;9.126;2023-03-17T02:51:51;7.10;;;3.13;;
21943;SDS011;11136;48.778;9.126;2023-03-17T02:54:17;6.95;;;3.45;;
21943;SDS011;11136;48.778;9.126;2023-03-17T02:56:43;4.82;;;3.28;;
21943;SDS011;11136;48.778;9.126;2023-03-17T02:59:09;4.95;;;3.28;;
21943;SDS011;11136;48.778;9.126;2023-03-17T03:01:35;6.13;;;3.08;;
21943;SDS011;11136;48.778;9.126;2023-03-17T03:04:00;3.55;;;2.38;;
21943;SDS011;11136;48.778;9.126;2023-03-17T03:06:27;4.95;;;2.53;;
21943;SDS011;11136;48.778;9.126;2023-03-17T03:08:52;4.25;;;3.63;;
21943;SDS011;11136;48.778;9.126;2023-03-17T03:11:18;5.60;;;3.42;;
21943;SDS011;11136;48.778;9.126;2023-03-17T03:13:44;8.43;;;2.90;;
21943;SDS011;11136;48.778;9.126;2023-03-17T03:16:10;5.07;;;2.70;;
21943;SDS011;11136;48.778;9.126;2023-03-17T03:18:36;4.85;;;2.85;;
21943;SDS011;11136;48.778;9.126;2023-03-17T03:21:02;4.03;;;2.60;;
21943;SDS011;11136;48.778;9.126;2023-03-17T03:23:29;3.65;;;2.78;;
21943;SDS011;11136;48.778;9.126;2023-03-17T03:25:55;3.85;;;2.63;;
21943;SDS011;11136;48.778;9.126;2023-03-17T03:28:21;3.22;;;2.50;;
21943;SDS011;11136;48.778;9.126;2023-03-17T03:30:47;6.80;;;2.60;;
21943;SDS011;11136;48.778;9.126;2023-03-17T03:33:13;2.72;;;1.80;;
21943;SDS011;11136;48.778;9.126;2023-03-17T03:35:40;3.25;;;2.40;;
21943;SDS011;11136;48.778;9.126;2023-03-17T03:38:06;6.75;;;2.95;;
21943;SDS011;11136;48.778;9.126;2023-03-17T03:40:32;4.55;;;2.70;;
21943;SDS011;11136;48.778;9.126;2023-03-17T03:43:00;3.33;;;2.22;;
21943;SDS011;11136;48.778;9.126;2023-03-17T03:45:26;3.80;;;2.53;;
21943;SDS011;11136;48.778;9.126;2023-03-17T03:47:53;2.58;;;1.90;;
21943;SDS011;11136;48.778;9.126;2023-03-17T03:50:20;7.40;;;2.28;;
21943;SDS011;11136;48.778;9.126;2023-03-17T03:52:46;4.80;;;1.98;;
21943;SDS011;11136;48.778;9.126;2023-03-17T03:55:12;6.78;;;2.08;;
21943;SDS011;11136;48.778;9.126;2023-03-17T03:57:37;3.33;;;2.20;;
21943;SDS011;11136;48.778;9.126;2023-03-17T04:00:03;2.35;;;1.83;;
21943;SDS011;11136;48.778;9.126;2023-03-17T04:02:31;4.32;;;1.95;;
21943;SDS011;11136;48.778;9.126;2023-03-17T04:04:57;5.90;;;2.28;;
21943;SDS011;11136;48.778;9.126;2023-03-17T04:07:23;2.80;;;2.30;;
21943;SDS011;11136;48.778;9.126;2023-03-17T04:09:48;3.58;;;2.10;;
21943;SDS011;11136;48.778;9.126;2023-03-17T04:12:15;3.92;;;2.15;;
21943;SDS011;11136;48.778;9.126;2023-03-17T04:14:41;2.22;;;1.80;;
21943;SDS011;11136;48.778;9.126;2023-03-17T04:17:09;8.20;;;2.35;;
21943;SDS011;11136;48.778;9.126;2023-03-17T04:19:35;6.65;;;2.30;;
21943;SDS011;11136;48.778;9.126;2023-03-17T04:22:02;3.97;;;2.55;;
21943;SDS011;11136;48.778;9.126;2023-03-17T04:24:28;3.92;;;2.10;;
21943;SDS011;11136;48.778;9.126;2023-03-17T04:26:54;4.95;;;2.40;;
21943;SDS011;11136;48.778;9.126;2023-03-17T04:29:20;2.35;;;1.95;;
21943;SDS011;11136;48.778;9.126;2023-03-17T04:31:45;3.80;;;2.58;;
21943;SDS011;11136;48.778;9.126;2023-03-17T04:34:12;2.88;;;2.10;;
21943;SDS011;11136;48.778;9.126;2023-03-17T04:36:40;3.67;;;2.25;;
21943;SDS011;11136;48.778;9.126;2023-03-17T04:39:07;2.22;;;1.80;;
21943;SDS011;11136;48.778;9.126;2023-03-17T04:41:32;3.58;;;2.08;;
21943;SDS011;11136;48.778;9.126;2023-03-17T04:43:58;4.22;;;1.90;;
21943;SDS011;11136;48.778;9.126;2023-03-17T04:46:24;8.32;;;2.42;;
21943;SDS011;11136;48.778;9.126;2023-03-17T04:48:49;4.32;;;1.92;;
21943;SDS011;11136;48.778;9.126;2023-03-17T04:51:15;5.95;;;2.05;;
21943;SDS011;11136;48.778;9.126;2023-03-17T04:53:41;8.60;;;2.20;;
21943;SDS011;11136;48.778;9.126;2023-03-17T04:56:08;4.43;;;2.13;;
21943;SDS011;11136;48.778;9.126;2023-03-17T04:58:35;4.95;;;2.65;;
21943;SDS011;11136;48.778;9.126;2023-03-17T05:01:01;5.20;;;3.03;;
21943;SDS011;11136;48.778;9.126;2023-03-17T05:03:27;4.10;;;2.28;;
21943;SDS011;11136;48.778;9.126;2023-03-17T05:05:55;2.40;;;1.95;;
21943;SDS011;11136;48.778;9.126;2023-03-17T05:08:21;2.78;;;2.03;;
21943;SDS011;11136;48.778;9.126;2023-03-17T05:10:47;4.57;;;2.70;;
21943;SDS011;11136;48.778;9.126;2023-03-17T05:13:13;4.25;;;2.05;;
21943;SDS011;11136;48.778;9.126;2023-03-17T05:15:42;2.58;;;1.85;;
21943;SDS011;11136;48.778;9.126;2023-03-17T05:18:10;4.68;;;2.33;;
21943;SDS011;11136;48.778;9.126;2023-03-17T05:20:36;4.70;;;2.00;;
21943;SDS011;11136;48.778;9.126;2023-03-17T05:23:01;4.25;;;1.92;;
21943;SDS011;11136;48.778;9.126;2023-03-17T05:25:27;4.82;;;2.03;;
21943;SDS011;11136;48.778;9.126;2023-03-17T05:27:53;3.78;;;2.13;;
21943;SDS011;11136;48.778;9.126;2023-03-17T05:30:18;4.38;;;2.17;;
21943;SDS011;11136;48.778;9.126;2023-03-17T05:32:44;7.15;;;2.33;;
21943;SDS011;11136;48.778;9.126;2023-03-17T05:35:10;3.33;;;2.13;;
21943;SDS011;11136;48.778;9.126;2023-03-17T05:37:37;4.75;;;2.08;;
21943;SDS011;11136;48.778;9.126;2023-03-17T05:40:02;4.93;;;1.80;;
21943;SDS011;11136;48.778;9.126;2023-03-17T05:42:28;2.85;;;2.10;;
21943;SDS011;11136;48.778;9.126;2023-03-17T05:44:54;2.47;;;2.03;;
21943;SDS011;11136;48.778;9.126;2023-03-17T05:47:19;3.10;;;1.77;;
21943;SDS011;11136;48.778;9.126;2023-03-17T05:49:46;3.30;;;2.22;;
21943;SDS011;11136;48.778;9.126;2023-03-17T05:52:12;3.92;;;1.77;;
21943;SDS011;11136;48.778;9.126;2023-03-17T05:54:38;5.38;;;2.30;;
21943;SDS011;11136;48.778;9.126;2023-03-17T05:57:03;5.55;;;1.70;;
21943;SDS011;11136;48.778;9.126;2023-03-17T05:59:29;3.50;;;2.08;;
21943;SDS011;11136;48.778;9.126;2023-03-17T06:01:54;4.05;;;1.83;;
21943;SDS011;11136;48.778;9.126;2023-03-17T06:04:21;4.82;;;1.88;;
21943;SDS011;11136;48.778;9.126;2023-03-17T06:06:46;6.22;;;2.28;;
21943;SDS011;11136;48.778;9.126;2023-03-17T06:09:12;6.25;;;2.50;;
21943;SDS011;11136;48.778;9.126;2023-03-17T06:11:39;4.22;;;1.83;;
21943;SDS011;11136;48.778;9.126;2023-03-17T06:14:05;2.83;;;2.00;;
21943;SDS011;11136;48.778;9.126;2023-03-17T06:16:31;3.25;;;1.70;;
21943;SDS011;11136;48.778;9.126;2023-03-17T06:18:57;2.50;;;2.15;;
21943;SDS011;11136;48.778;9.126;2023-03-17T06:21:23;6.90;;;3.58;;
21943;SDS011;11136;48.778;9.126;2023-03-17T06:23:48;3.03;;;1.92;;
21943;SDS011;11136;48.778;9.126;2023-03-17T06:26:14;7.32;;;3.03;;
21943;SDS011;11136;48.778;9.126;2023-03-17T06:28:40;6.00;;;2.38;;
21943;SDS011;11136;48.778;9.126;2023-03-17T06:31:05;4.50;;;2.30;;
21943;SDS011;11136;48.778;9.126;2023-03-17T06:33:33;7.47;;;2.90;;
21943;SDS011;11136;48.778;9.126;2023-03-17T06:35:59;2.63;;;2.10;;
21943;SDS011;11136;48.778;9.126;2023-03-17T06:38:26;7.57;;;3.15;;
21943;SDS011;11136;48.778;9.126;2023-03-17T06:40:52;7.50;;;2.80;;
21943;SDS011;11136;48.778;9.126;2023-03-17T06:43:17;7.80;;;3.40;;
21943;SDS011;11136;48.778;9.126;2023-03-17T06:45:43;4.45;;;3.10;;
21943;SDS011;11136;48.778;9.126;2023-03-17T06:48:10;5.15;;;2.60;;
21943;SDS011;11136;48.778;9.126;2023-03-17T06:50:36;8.65;;;2.67;;
21943;SDS011;11136;48.778;9.126;2023-03-17T06:53:02;5.35;;;2.75;;
21943;SDS011;11136;48.778;9.126;2023-03-17T06:55:27;4.03;;;2.72;;
21943;SDS011;11136;48.778;9.126;2023-03-17T06:57:54;7.18;;;3.08;;
21943;SDS011;11136;48.778;9.126;2023-03-17T07:00:19;5.88;;;3.42;;
21943;SDS011;11136;48.778;9.126;2023-03-17T07:02:46;4.28;;;3.03;;
21943;SDS011;11136;48.778;9.126;2023-03-17T07:05:13;5.78;;;3.53;;
21943;SDS011;11136;48.778;9.126;2023-03-17T07:07:39;11.13;;;3.75;;
21943;SDS011;11136;48.778;9.126;2023-03-17T07:10:05;9.57;;;3.60;;
21943;SDS011;11136;48.778;9.126;2023-03-17T07:12:31;11.43;;;3.42;;
21943;SDS011;11136;48.778;9.126;2023-03-17T07:14:57;7.40;;;3.95;;
21943;SDS011;11136;48.778;9.126;2023-03-17T07:17:23;5.20;;;3.90;;
21943;SDS011;11136;48.778;9.126;2023-03-17T07:19:49;8.52;;;3.42;;
21943;SDS011;11136;48.778;9.126;2023-03-17T07:22:16;6.38;;;3.67;;
21943;SDS011;11136;48.778;9.126;2023-03-17T07:24:41;8.98;;;3.92;;
21943;SDS011;11136;48.778;9.126;2023-03-17T07:27:07;7.80;;;3.85;;
21943;SDS011;11136;48.778;9.126;2023-03-17T07:29:33;8.90;;;4.10;;
21943;SDS011;11136;48.778;9.126;2023-03-17T07:31:59;9.38;;;4.90;;
21943;SDS011;11136;48.778;9.126;2023-03-17T07:34:25;10.18;;;3.83;;
21943;SDS011;11136;48.778;9.126;2023-03-17T07:36:51;7.30;;;3.80;;
21943;SDS011;11136;48.778;9.126;2023-03-17T07:39:16;14.65;;;4.45;;
21943;SDS011;11136;48.778;9.126;2023-03-17T07:41:42;12.07;;;4.57;;
21943;SDS011;11136;48.778;9.126;2023-03-17T07:44:08;10.35;;;3.72;;
21943;SDS011;11136;48.778;9.126;2023-03-17T07:46:35;6.90;;;3.47;;
21943;SDS011;11136;48.778;9.126;2023-03-17T07:49:02;8.90;;;3.97;;
21943;SDS011;11136;48.778;9.126;2023-03-17T07:51:28;6.47;;;3.70;;
21943;SDS011;11136;48.778;9.126;2023-03-17T07:53:54;7.63;;;3.75;;
21943;SDS011;11136;48.778;9.126;2023-03-17T07:56:27;9.00;;;4.07;;
21943;SDS011;11136;48.778;9.126;2023-03-17T07:58:54;7.82;;;4.00;;
21943;SDS011;11136;48.778;9.126;2023-03-17T08:01:21;8.20;;;4.20;;
21943;SDS011;11136;48.778;9.126;2023-03-17T08:03:47;11.80;;;4.40;;
21943;SDS011;11136;48.778;9.126;2023-03-17T08:06:13;7.95;;;3.95;;
21943;SDS011;11136;48.778;9.126;2023-03-17T08:08:38;10.40;;;4.22;;
21943;SDS011;11136;48.778;9.126;2023-03-17T08:11:04;7.32;;;3.83;;
21943;SDS011;11136;48.778;9.126;2023-03-17T08:13:30;5.78;;;3.13;;
21943;SDS011;11136;48.778;9.126;2023-03-17T08:15:56;10.35;;;3.28;;
21943;SDS011;11136;48.778;9.126;2023-03-17T08:18:22;5.93;;;3.35;;
21943;SDS011;11136;48.778;9.126;2023-03-17T08:20:48;8.00;;;3.05;;
21943;SDS011;11136;48.778;9.126;2023-03-17T08:23:15;6.13;;;2.60;;
21943;SDS011;11136;48.778;9.126;2023-03-17T08:25:41;8.48;;;2.70;;
21943;SDS011;11136;48.778;9.126;2023-03-17T08:28:07;3.42;;;2.10;;
21943;SDS011;11136;48.778;9.126;2023-03-17T08:30:34;7.18;;;2.42;;
21943;SDS011;11136;48.778;9.126;2023-03-17T08:33:01;3.17;;;2.00;;
21943;SDS011;11136;48.778;9.126;2023-03-17T08:35:27;6.38;;;3.05;;
21943;SDS011;11136;48.778;9.126;2023-03-17T08:37:53;4.53;;;2.40;;
21943;SDS011;11136;48.778;9.126;2023-03-17T08:40:18;7.32;;;3.22;;
21943;SDS011;11136;48.778;9.126;2023-03-17T08:42:45;5.22;;;2.70;;
21943;SDS011;11136;48.778;9.126;2023-03-17T08:45:13;8.20;;;2.65;;
21943;SDS011;11136;48.778;9.126;2023-03-17T08:47:40;6.07;;;3.22;;
21943;SDS011;11136;48.778;9.126;2023-03-17T08:50:07;6.07;;;3.00;;
21943;SDS011;11136;48.778;9.126;2023-03-17T08:52:36;6.38;;;3.05;;
21943;SDS011;11136;48.778;9.126;2023-03-17T08:55:02;6.07;;;3.08;;
21943;SDS011;11136;48.778;9.126;2023-03-17T08:57:28;8.30;;;2.85;;
21943;SDS011;11136;48.778;9.126;2023-03-17T08:59:53;9.32;;;3.35;;
21943;SDS011;11136;48.778;9.126;2023-03-17T09:02:19;6.53;;;2.45;;
21943;SDS011;11136;48.778;9.126;2023-03-17T09:04:45;3.55;;;1.38;;
21943;SDS011;11136;48.778;9.126;2023-03-17T09:07:11;5.45;;;1.75;;
21943;SDS011;11136;48.778;9.126;2023-03-17T09:09:37;5.45;;;1.70;;
21943;SDS011;11136;48.778;9.126;2023-03-17T09:12:04;2.78;;;1.52;;
21943;SDS011;11136;48.778;9.126;2023-03-17T09:14:31;2.80;;;1.60;;
21943;SDS011;11136;48.778;9.126;2023-03-17T09:16:57;3.03;;;1.40;;
21943;SDS011;11136;48.778;9.126;2023-03-17T09:19:23;1.60;;;1.48;;
21943;SDS011;11136;48.778;9.126;2023-03-17T09:21:49;3.85;;;1.30;;
21943;SDS011;11136;48.778;9.126;2023-03-17T09:24:16;3.20;;;1.58;;
21943;SDS011;11136;48.778;9.126;2023-03-17T09:26:42;4.25;;;1.42;;
21943;SDS011;11136;48.778;9.126;2023-03-17T09:29:07;4.32;;;1.50;;
21943;SDS011;11136;48.778;9.126;2023-03-17T09:31:33;2.30;;;1.25;;
21943;SDS011;11136;48.778;9.126;2023-03-17T09:34:02;6.50;;;2.75;;
21943;SDS011;11136;48.778;9.126;2023-03-17T09:36:29;5.53;;;2.58;;
21943;SDS011;11136;48.778;9.126;2023-03-17T09:38:58;7.68;;;2.85;;
21943;SDS011;11136;48.778;9.126;2023-03-17T09:46:47;6.80;;;2.50;;
21943;SDS011;11136;48.778;9.126;2023-03-17T09:50:07;3.75;;;2.13;;
21943;SDS011;11136;48.778;9.126;2023-03-17T09:52:16;4.63;;;2.28;;
21943;SDS011;11136;48.778;9.126;2023-03-17T09:54:46;6.97;;;2.33;;
21943;SDS011;11136;48.778;9.126;2023-03-17T09:57:33;5.35;;;2.00;;
21943;SDS011;11136;48.778;9.126;2023-03-17T10:00:02;2.22;;;1.90;;
21943;SDS011;11136;48.778;9.126;2023-03-17T10:02:38;3.88;;;2.05;;
21943;SDS011;11136;48.778;9.126;2023-03-17T10:10:19;8.48;;;2.05;;
21943;SDS011;11136;48.778;9.126;2023-03-17T10:13:13;7.45;;;2.78;;
21943;SDS011;11136;48.778;9.126;2023-03-17T10:19:32;5.38;;;1.67;;
21943;SDS011;11136;48.778;9.126;2023-03-17T10:21:32;1.85;;;1.30;;
21943;SDS011;11136;48.778;9.126;2023-03-17T10:24:04;5.90;;;1.75;;
21943;SDS011;11136;48.778;9.126;2023-03-17T10:26:34;2.75;;;1.88;;
21943;SDS011;11136;48.778;9.126;2023-03-17T10:29:16;3.83;;;1.63;;
21943;SDS011;11136;48.778;9.126;2023-03-17T10:31:46;3.45;;;1.45;;
21943;SDS011;11136;48.778;9.126;2023-03-17T10:39:30;3.13;;;1.70;;
21943;SDS011;11136;48.778;9.126;2023-03-17T10:42:01;3.25;;;1.60;;
21943;SDS011;11136;48.778;9.126;2023-03-17T10:47:04;2.60;;;1.63;;
21943;SDS011;11136;48.778;9.126;2023-03-17T10:49:42;3.05;;;1.30;;
21943;SDS011;11136;48.778;9.126;2023-03-17T10:52:13;2.22;;;1.55;;
21943;SDS011;11136;48.778;9.126;2023-03-17T10:54:46;4.25;;;1.50;;
21943;SDS011;11136;48.778;9.126;2023-03-17T10:57:13;3.08;;;1.70;;
21943;SDS011;11136;48.778;9.126;2023-03-17T10:59:42;2.13;;;1.35;;
21943;SDS011;11136;48.778;9.126;2023-03-17T11:02:27;3.40;;;1.55;;
21943;SDS011;11136;48.778;9.126;2023-03-17T11:05:05;2.35;;;1.13;;
21943;SDS011;11136;48.778;9.126;2023-03-17T11:07:37;2.38;;;1.40;;
21943;SDS011;11136;48.778;9.126;2023-03-17T11:10:13;3.97;;;1.77;;
21943;SDS011;11136;48.778;9.126;2023-03-17T11:12:48;2.17;;;1.40;;
21943;SDS011;11136;48.778;9.126;2023-03-17T11:15:31;2.83;;;1.97;;
21943;SDS011;11136;48.778;9.126;2023-03-17T11:18:19;3.58;;;2.03;;
21943;SDS011;11136;48.778;9.126;2023-03-17T11:20:55;6.10;;;1.73;;
21943;SDS011;11136;48.778;9.126;2023-03-17T11:23:44;5.35;;;1.60;;
21943;SDS011;11136;48.778;9.126;2023-03-17T11:32:19;2.80;;;2.03;;
21943;SDS011;11136;48.778;9.126;2023-03-17T11:34:56;3.80;;;1.90;;
21943;SDS011;11136;48.778;9.126;2023-03-17T11:45:49;4.15;;;1.73;;
21943;SDS011;11136;48.778;9.126;2023-03-17T11:51:20;3.10;;;1.80;;
21943;SDS011;11136;48.778;9.126;2023-03-17T11:56:20;1.95;;;1.55;;
21943;SDS011;11136;48.778;9.126;2023-03-17T12:01:32;3.40;;;1.73;;
21943;SDS011;11136;48.778;9.126;2023-03-17T12:04:10;4.43;;;2.03;;
21943;SDS011;11136;48.778;9.126;2023-03-17T12:06:50;6.38;;;2.22;;
21943;SDS011;11136;48.778;9.126;2023-03-17T12:09:26;5.07;;;2.03;;
21943;SDS011;11136;48.778;9.126;2023-03-17T12:11:57;2.10;;;1.80;;
21943;SDS011;11136;48.778;9.126;2023-03-17T12:14:35;5.30;;;2.03;;
21943;SDS011;11136;48.778;9.126;2023-03-17T12:17:41;5.10;;;1.92;;
21943;SDS011;11136;48.778;9.126;2023-03-17T12:20:04;5.65;;;1.65;;
21943;SDS011;11136;48.778;9.126;2023-03-17T12:22:39;7.40;;;2.10;;
21943;SDS011;11136;48.778;9.126;2023-03-17T12:25:24;2.95;;;1.90;;
21943;SDS011;11136;48.778;9.126;2023-03-17T12:30:46;3.92;;;1.35;;
21943;SDS011;11136;48.778;9.126;2023-03-17T12:36:04;3.00;;;1.80;;
21943;SDS011;11136;48.778;9.126;2023-03-17T12:54:35;2.67;;;1.50;;
21943;SDS011;11136;48.778;9.126;2023-03-17T12:57:04;3.13;;;1.45;;
21943;SDS011;11136;48.778;9.126;2023-03-17T12:59:40;4.75;;;1.38;;
21943;SDS011;11136;48.778;9.126;2023-03-17T13:02:16;4.40;;;1.73;;
21943;SDS011;11136;48.778;9.126;2023-03-17T13:04:56;2.50;;;1.33;;
21943;SDS011;11136;48.778;9.126;2023-03-17T13:20:37;10.68;;;2.35;;
21943;SDS011;11136;48.778;9.126;2023-03-17T13:25:37;3.47;;;1.35;;
21943;SDS011;11136;48.778;9.126;2023-03-17T13:33:21;3.60;;;1.95;;
21943;SDS011;11136;48.778;9.126;2023-03-17T13:41:54;2.28;;;1.50;;
21943;SDS011;11136;48.778;9.126;2023-03-17T13:47:25;5.55;;;1.63;;
21943;SDS011;11136;48.778;9.126;2023-03-17T13:49:52;3.35;;;1.40;;
21943;SDS011;11136;48.778;9.126;2023-03-17T13:52:25;1.98;;;1.20;;
21943;SDS011;11136;48.778;9.126;2023-03-17T13:58:21;2.30;;;1.63;;
21943;SDS011;11136;48.778;9.126;2023-03-17T14:00:40;2.53;;;1.20;;
21943;SDS011;11136;48.778;9.126;2023-03-17T14:03:28;8.93;;;2.10;;
21943;SDS011;11136;48.778;9.126;2023-03-17T14:06:04;3.90;;;1.80;;
21943;SDS011;11136;48.778;9.126;2023-03-17T14:08:33;6.93;;;2.58;;
21943;SDS011;11136;48.778;9.126;2023-03-17T14:11:03;4.85;;;2.22;;
21943;SDS011;11136;48.778;9.126;2023-03-17T14:13:48;2.15;;;1.50;;
21943;SDS011;11136;48.778;9.126;2023-03-17T14:16:32;4.38;;;1.27;;
21943;SDS011;11136;48.778;9.126;2023-03-17T14:19:19;2.50;;;1.30;;
21943;SDS011;11136;48.778;9.126;2023-03-17T14:21:47;3.50;;;1.73;;
21943;SDS011;11136;48.778;9.126;2023-03-17T14:24:29;2.13;;;1.25;;
21943;SDS011;11136;48.778;9.126;2023-03-17T14:26:56;1.75;;;1.23;;
21943;SDS011;11136;48.778;9.126;2023-03-17T14:29:28;2.83;;;1.25;;
21943;SDS011;11136;48.778;9.126;2023-03-17T14:32:15;7.68;;;1.67;;
21943;SDS011;11136;48.778;9.126;2023-03-17T14:34:47;1.27;;;0.80;;
21943;SDS011;11136;48.778;9.126;2023-03-17T14:37:18;6.70;;;1.15;;
21943;SDS011;11136;48.778;9.126;2023-03-17T14:39:49;2.00;;;1.00;;
21943;SDS011;11136;48.778;9.126;2023-03-17T14:42:18;1.42;;;0.82;;
21943;SDS011;11136;48.778;9.126;2023-03-17T14:44:57;2.80;;;0.85;;
21943;SDS011;11136;48.778;9.126;2023-03-17T14:47:24;1.35;;;0.70;;
21943;SDS011;11136;48.778;9.126;2023-03-17T14:49:55;2.97;;;0.90;;
21943;SDS011;11136;48.778;9.126;2023-03-17T14:52:24;1.27;;;0.82;;
21943;SDS011;11136;48.778;9.126;2023-03-17T14:54:53;2.10;;;1.25;;
21943;SDS011;11136;48.778;9.126;2023-03-17T14:57:22;2.72;;;0.80;;
21943;SDS011;11136;48.778;9.126;2023-03-17T15:00:54;2.45;;;1.00;;
21943;SDS011;11136;48.778;9.126;2023-03-17T15:02:54;1.20;;;0.93;;
21943;SDS011;11136;48.778;9.126;2023-03-17T15:06:01;1.58;;;0.95;;
21943;SDS011;11136;48.778;9.126;2023-03-17T15:11:16;2.38;;;1.00;;
21943;SDS011;11136;48.778;9.126;2023-03-17T15:13:52;0.90;;;0.75;;
21943;SDS011;11136;48.778;9.126;2023-03-17T15:16:28;1.23;;;1.00;;
21943;SDS011;11136;48.778;9.126;2023-03-17T15:19:40;3.40;;;1.10;;
21943;SDS011;11136;48.778;9.126;2023-03-17T15:22:03;1.38;;;1.10;;
21943;SDS011;11136;48.778;9.126;2023-03-17T15:24:59;1.98;;;0.98;;
21943;SDS011;11136;48.778;9.126;2023-03-17T15:27:31;3.08;;;1.10;;
21943;SDS011;11136;48.778;9.126;2023-03-17T15:29:56;1.80;;;1.10;;
21943;SDS011;11136;48.778;9.126;2023-03-17T15:32:23;1.25;;;1.00;;
21943;SDS011;11136;48.778;9.126;2023-03-17T15:34:52;2.78;;;1.15;;
21943;SDS011;11136;48.778;9.126;2023-03-17T15:37:24;1.15;;;0.80;;
21943;SDS011;11136;48.778;9.126;2023-03-17T15:39:51;4.22;;;1.75;;
21943;SDS011;11136;48.778;9.126;2023-03-17T15:42:19;4.60;;;1.10;;
21943;SDS011;11136;48.778;9.126;2023-03-17T15:44:47;1.50;;;0.95;;
21943;SDS011;11136;48.778;9.126;2023-03-17T15:47:13;1.50;;;0.70;;
21943;SDS011;11136;48.778;9.126;2023-03-17T15:49:41;3.60;;;0.85;;
21943;SDS011;11136;48.778;9.126;2023-03-17T15:52:10;1.80;;;1.10;;
21943;SDS011;11136;48.778;9.126;2023-03-17T15:54:43;4.55;;;1.50;;
21943;SDS011;11136;48.778;9.126;2023-03-17T15:57:09;3.20;;;1.30;;
21943;SDS011;11136;48.778;9.126;2023-03-17T15:59:36;9.02;;;2.40;;
21943;SDS011;11136;48.778;9.126;2023-03-17T16:02:07;7.93;;;2.22;;
21943;SDS011;11136;48.778;9.126;2023-03-17T16:04:51;2.63;;;1.10;;
21943;SDS011;11136;48.778;9.126;2023-03-17T16:07:17;5.50;;;1.65;;
21943;SDS011;11136;48.778;9.126;2023-03-17T16:09:43;5.07;;;1.98;;
21943;SDS011;11136;48.778;9.126;2023-03-17T16:12:12;16.95;;;2.40;;
21943;SDS011;11136;48.778;9.126;2023-03-17T16:14:39;5.22;;;1.70;;
21943;SDS011;11136;48.778;9.126;2023-03-17T16:17:05;3.83;;;1.77;;
21943;SDS011;11136;48.778;9.126;2023-03-17T16:19:37;9.63;;;2.35;;
21943;SDS011;11136;48.778;9.126;2023-03-17T16:22:03;2.38;;;1.30;;
21943;SDS011;11136;48.778;9.126;2023-03-17T16:24:28;3.75;;;1.73;;
21943;SDS011;11136;48.778;9.126;2023-03-17T16:26:55;3.75;;;1.92;;
21943;SDS011;11136;48.778;9.126;2023-03-17T16:29:20;3.65;;;1.92;;
21943;SDS011;11136;48.778;9.126;2023-03-17T16:31:47;4.60;;;1.88;;
21943;SDS011;11136;48.778;9.126;2023-03-17T16:34:14;6.70;;;1.60;;
21943;SDS011;11136;48.778;9.126;2023-03-17T16:36:41;6.18;;;1.52;;
21943;SDS011;11136;48.778;9.126;2023-03-17T16:39:17;14.57;;;1.55;;
21943;SDS011;11136;48.778;9.126;2023-03-17T16:41:45;8.15;;;1.80;;
21943;SDS011;11136;48.778;9.126;2023-03-17T16:44:11;16.02;;;2.95;;
21943;SDS011;11136;48.778;9.126;2023-03-17T16:46:39;20.98;;;4.50;;
21943;SDS011;11136;48.778;9.126;2023-03-17T16:49:19;18.67;;;5.07;;
21943;SDS011;11136;48.778;9.126;2023-03-17T16:51:46;10.25;;;1.88;;
21943;SDS011;11136;48.778;9.126;2023-03-17T16:54:12;18.05;;;2.08;;
21943;SDS011;11136;48.778;9.126;2023-03-17T16:56:38;17.05;;;3.22;;